createdAt,value
2024-01-30T00:02:12.176Z,39.05
2024-01-30T00:04:42.560Z,40.67
2024-01-30T00:07:42.537Z,36.35
2024-01-30T00:10:22.004Z,33.30
2024-01-30T00:12:52.470Z,40.33
2024-01-30T00:15:23.090Z,35.33
2024-01-30T00:17:55.743Z,37.63
2024-01-30T00:20:26.357Z,35.35
2024-01-30T00:22:56.660Z,34.35
2024-01-30T00:25:27.048Z,32.25
2024-01-30T00:27:57.416Z,35.10
2024-01-30T00:30:27.774Z,33.97
2024-01-30T00:32:58.314Z,34.00
2024-01-30T00:35:28.713Z,32.77
2024-01-30T00:37:59.105Z,35.55
2024-01-30T00:40:29.678Z,31.65
2024-01-30T00:43:00.084Z,29.23
2024-01-30T00:45:30.500Z,32.70
2024-01-30T00:48:00.943Z,34.97
2024-01-30T00:50:31.493Z,33.07
2024-01-30T00:53:01.881Z,29.35
2024-01-30T00:55:32.424Z,33.77
2024-01-30T00:58:02.767Z,30.77
2024-01-30T01:00:33.405Z,34.00
2024-01-30T01:03:03.849Z,33.33
2024-01-30T01:05:34.248Z,31.88
2024-01-30T01:08:04.350Z,30.05
2024-01-30T01:10:34.493Z,32.50
2024-01-30T01:13:04.685Z,35.33
2024-01-30T01:15:35.044Z,32.95
2024-01-30T01:18:05.782Z,30.88
2024-01-30T01:20:36.184Z,31.23
2024-01-30T01:23:07.141Z,31.10
2024-01-30T01:25:37.423Z,28.02
2024-01-30T01:28:08.214Z,29.42
2024-01-30T01:30:39.055Z,31.83
2024-01-30T01:33:10.355Z,31.92
2024-01-30T01:38:10.536Z,34.75
2024-01-30T01:40:43.130Z,28.85
2024-01-30T01:43:13.566Z,30.20
2024-01-30T01:45:43.903Z,35.70
2024-01-30T01:48:15.066Z,34.90
2024-01-30T01:50:46.919Z,30.98
2024-01-30T01:53:18.821Z,29.17
2024-01-30T01:55:50.796Z,31.40
2024-01-30T01:58:23.722Z,31.38
2024-01-30T02:00:55.429Z,30.63
2024-01-30T02:03:25.954Z,31.13
2024-01-30T02:05:56.383Z,30.77
2024-01-30T02:08:28.214Z,31.75
2024-01-30T02:10:58.996Z,31.92
2024-01-30T02:13:29.380Z,34.60
2024-01-30T02:15:59.787Z,35.33
2024-01-30T02:18:30.107Z,30.65
2024-01-30T02:21:05.423Z,34.03
2024-01-30T02:23:37.338Z,41.67
2024-01-30T02:26:07.841Z,34.88
2024-01-30T02:28:38.111Z,32.33
2024-01-30T02:31:09.019Z,42.45
2024-01-30T02:33:39.343Z,34.95
2024-01-30T02:36:09.922Z,34.72
2024-01-30T02:38:40.243Z,32.37
2024-01-30T02:41:10.456Z,33.75
2024-01-30T02:43:40.575Z,36.83
2024-01-30T02:46:10.775Z,32.60
2024-01-30T02:48:42.708Z,32.35
2024-01-30T02:51:12.906Z,32.55
2024-01-30T02:53:43.206Z,32.28
2024-01-30T02:56:13.731Z,34.42
2024-01-30T02:58:44.591Z,32.17
2024-01-30T03:01:14.886Z,33.83
2024-01-30T03:03:46.857Z,34.10
2024-01-30T03:06:19.397Z,37.60
2024-01-30T03:08:50.030Z,31.77
2024-01-30T03:11:20.377Z,31.50
2024-01-30T03:13:50.743Z,30.55
2024-01-30T03:16:21.172Z,29.90
2024-01-30T03:18:52.066Z,33.47
2024-01-30T03:21:22.392Z,32.70
2024-01-30T03:23:52.626Z,32.55
2024-01-30T03:26:22.968Z,29.70
2024-01-30T03:28:53.173Z,37.35
2024-01-30T03:31:23.715Z,31.52
2024-01-30T03:33:54.276Z,32.17
2024-01-30T03:36:24.867Z,29.53
2024-01-30T03:38:55.141Z,33.28
2024-01-30T03:41:25.436Z,33.97
2024-01-30T03:43:55.645Z,29.73
2024-01-30T03:46:26.015Z,29.25
2024-01-30T03:48:56.633Z,29.02
2024-01-30T03:51:26.969Z,30.80
2024-01-30T03:53:57.408Z,30.55
2024-01-30T03:56:29.376Z,31.35
2024-01-30T03:59:00.502Z,31.25
2024-01-30T04:01:30.983Z,30.40
2024-01-30T04:04:01.633Z,29.23
2024-01-30T04:06:32.025Z,30.77
2024-01-30T04:09:02.402Z,30.25
2024-01-30T04:11:32.812Z,29.48
2024-01-30T04:14:03.006Z,29.58
2024-01-30T04:16:33.379Z,33.38
2024-01-30T04:19:04.036Z,31.33
2024-01-30T04:21:34.910Z,33.28
2024-01-30T04:24:05.188Z,31.48
2024-01-30T04:26:35.583Z,33.50
2024-01-30T04:29:06.361Z,30.45
2024-01-30T04:31:36.704Z,32.55
2024-01-30T04:34:07.415Z,35.50
2024-01-30T04:36:38.003Z,31.73
2024-01-30T04:39:08.404Z,33.20
2024-01-30T04:41:38.860Z,32.95
2024-01-30T04:44:09.159Z,31.88
2024-01-30T04:46:39.484Z,30.45
2024-01-30T04:49:11.287Z,32.13
2024-01-30T04:51:41.834Z,35.78
2024-01-30T04:54:12.294Z,30.15
2024-01-30T04:56:43.143Z,30.93
2024-01-30T04:59:13.475Z,30.85
2024-01-30T05:01:44.037Z,30.98
2024-01-30T05:04:17.443Z,30.67
2024-01-30T05:06:48.591Z,33.88
2024-01-30T05:09:19.005Z,31.38
2024-01-30T05:11:49.392Z,31.42
2024-01-30T05:14:20.056Z,30.50
2024-01-30T05:16:50.991Z,30.87
2024-01-30T05:19:21.423Z,30.33
2024-01-30T05:21:51.895Z,33.93
2024-01-30T05:24:23.255Z,31.65
2024-01-30T05:26:54.689Z,31.90
2024-01-30T05:29:25.683Z,29.70
2024-01-30T05:31:55.921Z,29.88
2024-01-30T05:34:26.278Z,30.08
2024-01-30T05:36:56.696Z,29.80
2024-01-30T05:39:26.847Z,30.38
2024-01-30T05:41:57.028Z,31.02
2024-01-30T05:44:27.323Z,30.33
2024-01-30T05:46:57.599Z,28.15
2024-01-30T05:49:27.999Z,29.10
2024-01-30T05:51:58.392Z,29.20
2024-01-30T05:54:28.811Z,29.88
2024-01-30T05:56:59.192Z,29.27
2024-01-30T05:59:29.600Z,28.55
2024-01-30T06:02:00.032Z,28.58
2024-01-30T06:04:30.479Z,28.70
2024-01-30T06:07:01.069Z,28.98
2024-01-30T06:09:32.521Z,28.37
2024-01-30T06:12:02.799Z,27.85
2024-01-30T06:14:33.358Z,28.65
2024-01-30T06:17:04.091Z,26.97
2024-01-30T06:19:34.735Z,28.02
2024-01-30T06:22:05.132Z,28.70
2024-01-30T06:24:35.902Z,28.03
2024-01-30T06:27:06.384Z,27.53
2024-01-30T06:29:36.868Z,27.90
2024-01-30T06:32:07.627Z,27.80
2024-01-30T06:34:38.340Z,27.33
2024-01-30T06:37:08.897Z,28.23
2024-01-30T06:39:39.352Z,27.70
2024-01-30T06:42:09.729Z,27.27
2024-01-30T06:44:40.054Z,25.67
2024-01-30T06:47:10.455Z,26.02
2024-01-30T06:49:41.979Z,26.17
2024-01-30T06:52:12.726Z,27.92
2024-01-30T06:54:43.306Z,28.73
2024-01-30T06:57:15.511Z,26.10
2024-01-30T06:59:47.474Z,27.02
2024-01-30T07:02:17.952Z,26.15
2024-01-30T07:04:48.618Z,29.67
2024-01-30T07:07:19.402Z,26.75
2024-01-30T07:09:51.202Z,27.07
2024-01-30T07:12:21.812Z,26.77
2024-01-30T07:14:52.184Z,28.00
2024-01-30T07:17:22.721Z,27.50
2024-01-30T07:19:53.128Z,27.70
2024-01-30T07:22:23.632Z,27.30
2024-01-30T07:24:55.484Z,27.80
2024-01-30T07:27:25.859Z,26.83
2024-01-30T07:29:56.170Z,26.70
2024-01-30T07:32:27.449Z,27.60
2024-01-30T07:35:06.875Z,26.98
2024-01-30T07:40:10.286Z,25.50
2024-01-30T07:42:40.667Z,26.98
2024-01-30T07:45:13.876Z,26.00
2024-01-30T07:47:44.516Z,26.30
2024-01-30T07:50:14.977Z,26.40
2024-01-30T07:52:46.353Z,26.33
2024-01-30T07:57:46.586Z,27.38
2024-01-30T08:00:17.486Z,26.10
2024-01-30T08:02:47.768Z,26.75
2024-01-30T08:05:18.840Z,26.00
2024-01-30T08:07:49.652Z,25.88
2024-01-30T08:10:22.575Z,26.85
2024-01-30T08:12:53.018Z,26.55
2024-01-30T08:15:23.362Z,26.25
2024-01-30T08:17:59.406Z,25.73
2024-01-30T08:20:29.830Z,26.30
2024-01-30T08:23:00.128Z,27.70
2024-01-30T08:25:30.527Z,25.90
2024-01-30T08:28:00.918Z,26.23
2024-01-30T08:30:31.325Z,25.48
2024-01-30T08:33:01.788Z,28.02
2024-01-30T08:35:35.233Z,26.57
2024-01-30T08:38:06.917Z,25.35
2024-01-30T08:40:37.612Z,26.27
2024-01-30T08:43:08.288Z,26.47
2024-01-30T08:45:38.819Z,25.27
2024-01-30T08:48:09.639Z,25.48
2024-01-30T08:50:40.319Z,25.33
2024-01-30T08:53:10.723Z,25.40
2024-01-30T08:55:41.053Z,25.50
2024-01-30T08:58:11.563Z,26.40
2024-01-30T09:00:42.166Z,25.33
2024-01-30T09:03:12.517Z,25.73
2024-01-30T09:05:42.666Z,25.52
2024-01-30T09:08:13.906Z,26.88
2024-01-30T09:10:44.691Z,28.42
2024-01-30T09:13:15.430Z,31.15
2024-01-30T09:15:46.446Z,29.23
2024-01-30T09:18:16.853Z,32.47
2024-01-30T09:20:48.956Z,29.73
2024-01-30T09:23:20.912Z,31.45
2024-01-30T09:25:51.831Z,31.77
2024-01-30T09:28:23.775Z,32.80
2024-01-30T09:30:55.596Z,32.13
2024-01-30T09:33:26.004Z,30.92
2024-01-30T09:35:56.366Z,33.80
2024-01-30T09:38:26.897Z,35.63
2024-01-30T09:40:59.758Z,34.50
2024-01-30T09:43:36.779Z,34.47
2024-01-30T09:46:09.331Z,37.72
2024-01-30T09:48:40.413Z,35.53
2024-01-30T09:51:13.134Z,36.10
2024-01-30T09:53:46.618Z,36.42
2024-01-30T09:56:17.949Z,37.10
2024-01-30T10:01:22.421Z,38.92
2024-01-30T10:03:56.180Z,39.38
2024-01-30T10:06:28.750Z,38.75
2024-01-30T10:08:59.139Z,40.08
2024-01-30T10:11:29.594Z,39.22
2024-01-30T10:13:59.958Z,38.15
2024-01-30T10:16:30.352Z,40.80
2024-01-30T10:19:00.934Z,40.93
2024-01-30T10:21:31.549Z,38.28
2024-01-30T10:24:02.011Z,38.42
2024-01-30T10:26:32.927Z,40.67
2024-01-30T10:29:03.691Z,39.80
2024-01-30T10:31:34.454Z,39.78
2024-01-30T10:34:11.917Z,44.90
2024-01-30T10:36:53.819Z,41.10
2024-01-30T10:39:26.350Z,40.25
2024-01-30T10:42:03.190Z,39.85
2024-01-30T10:44:38.912Z,41.70
2024-01-30T10:47:16.263Z,42.58
2024-01-30T10:49:47.195Z,41.40
2024-01-30T10:52:19.014Z,42.92
2024-01-30T10:54:50.684Z,41.40
2024-01-30T10:57:21.817Z,41.13
2024-01-30T10:59:53.432Z,42.35
2024-01-30T11:02:24.518Z,40.47
2024-01-30T11:05:01.559Z,40.70
2024-01-30T11:07:33.739Z,41.80
2024-01-30T11:10:07.279Z,42.38
2024-01-30T11:12:46.893Z,42.42
2024-01-30T11:15:21.090Z,41.83
2024-01-30T11:17:55.569Z,43.53
2024-01-30T11:20:29.882Z,42.28
2024-01-30T11:23:01.158Z,43.33
2024-01-30T11:28:02.531Z,45.50
2024-01-30T11:30:37.087Z,45.83
2024-01-30T11:33:12.706Z,45.70
2024-01-30T11:35:48.028Z,44.95
2024-01-30T11:38:18.819Z,44.78
2024-01-30T11:40:49.749Z,45.58
2024-01-30T11:43:22.370Z,44.85
2024-01-30T11:45:53.094Z,45.30
2024-01-30T11:48:23.966Z,50.67
2024-01-30T11:50:55.310Z,45.53
2024-01-30T11:53:26.144Z,50.78
2024-01-30T11:55:56.467Z,44.83
2024-01-30T11:58:29.819Z,49.00
2024-01-30T12:01:01.073Z,50.65
2024-01-30T12:06:02.522Z,48.88
2024-01-30T12:08:33.128Z,52.25
2024-01-30T12:11:05.584Z,51.50
2024-01-30T12:13:36.388Z,51.40
2024-01-30T12:16:07.035Z,56.95
2024-01-30T12:18:37.580Z,54.38
2024-01-30T12:21:08.687Z,49.23
2024-01-30T12:23:39.343Z,50.17
2024-01-30T12:26:10.647Z,49.73
2024-01-30T12:31:13.144Z,49.10
2024-01-30T12:33:43.536Z,51.38
2024-01-30T12:36:15.754Z,52.15
2024-01-30T12:38:46.232Z,51.03
2024-01-30T12:41:16.651Z,53.65
2024-01-30T12:43:47.521Z,49.43
2024-01-30T12:46:20.576Z,51.45
2024-01-30T12:48:51.073Z,51.97
2024-01-30T12:51:21.537Z,52.70
2024-01-30T12:53:52.232Z,50.80
2024-01-30T12:56:22.733Z,49.97
2024-01-30T12:58:54.944Z,50.55
2024-01-30T13:01:26.415Z,49.92
2024-01-30T13:03:57.193Z,50.17
2024-01-30T13:06:27.818Z,50.83
2024-01-30T13:08:58.102Z,53.20
2024-01-30T13:11:29.597Z,50.17
2024-01-30T13:13:59.932Z,48.92
2024-01-30T13:16:30.768Z,49.50
2024-01-30T13:19:01.360Z,59.08
2024-01-30T13:21:32.457Z,50.63
2024-01-30T13:24:03.315Z,51.58
2024-01-30T13:26:35.701Z,52.33
2024-01-30T13:29:07.053Z,55.53
2024-01-30T13:31:39.291Z,51.60
2024-01-30T13:34:12.727Z,54.33
2024-01-30T13:36:42.947Z,62.78
2024-01-30T13:39:14.340Z,56.70
2024-01-30T13:41:47.619Z,63.10
2024-01-30T13:44:20.121Z,63.45
2024-01-30T13:46:50.898Z,57.00
2024-01-30T13:49:21.352Z,58.58
2024-01-30T13:51:51.622Z,61.47
2024-01-30T13:54:22.378Z,58.77
2024-01-30T13:56:52.890Z,74.20
2024-01-30T13:59:27.298Z,70.30
2024-01-30T14:01:57.925Z,74.63
2024-01-30T14:04:28.662Z,67.82
2024-01-30T14:07:04.722Z,67.60
2024-01-30T14:09:36.257Z,65.65
2024-01-30T14:12:06.818Z,70.53
2024-01-30T14:14:37.348Z,64.53
2024-01-30T14:17:10.504Z,66.37
2024-01-30T14:19:40.927Z,64.68
2024-01-30T14:22:12.854Z,64.70
2024-01-30T14:24:43.543Z,64.68
2024-01-30T14:27:14.603Z,65.30
2024-01-30T14:29:46.615Z,61.42
2024-01-30T14:32:17.156Z,58.70
2024-01-30T14:34:47.652Z,59.90
2024-01-30T14:37:18.234Z,57.43
2024-01-30T14:39:48.918Z,57.20
2024-01-30T14:42:19.628Z,56.83
2024-01-30T14:44:52.218Z,53.67
2024-01-30T14:47:22.924Z,54.67
2024-01-30T14:49:53.303Z,54.17
2024-01-30T14:52:23.911Z,51.00
2024-01-30T14:54:54.637Z,53.87
2024-01-30T14:59:06.580Z,51.53
2024-01-30T15:01:36.992Z,53.88
2024-01-30T15:04:07.668Z,47.47
2024-01-30T15:06:38.311Z,50.77
2024-01-30T15:09:08.532Z,46.92
2024-01-30T15:11:39.514Z,47.53
2024-01-30T15:14:09.961Z,48.37
2024-01-30T15:16:40.658Z,48.50
2024-01-30T15:19:11.631Z,44.50
2024-01-30T15:21:42.354Z,43.80
2024-01-30T15:24:12.879Z,43.58
2024-01-30T15:26:43.317Z,47.93
2024-01-30T15:29:13.739Z,43.58
2024-01-30T15:31:44.182Z,45.78
2024-01-30T15:34:14.635Z,41.20
2024-01-30T15:36:45.490Z,40.20
2024-01-30T15:39:18.860Z,41.67
2024-01-30T15:41:49.228Z,40.90
2024-01-30T15:44:19.664Z,39.47
2024-01-30T15:46:53.146Z,40.10
2024-01-30T15:49:23.672Z,39.88
2024-01-30T15:51:54.213Z,39.57
2024-01-30T15:54:28.394Z,40.80
2024-01-30T15:56:59.110Z,42.95
2024-01-30T15:59:30.728Z,41.73
2024-01-30T16:02:01.411Z,39.63
2024-01-30T16:04:32.004Z,39.55
2024-01-30T16:07:02.580Z,41.17
2024-01-30T16:09:33.132Z,39.57
2024-01-30T16:12:03.522Z,41.53
2024-01-30T16:14:34.013Z,39.47
2024-01-30T16:17:04.521Z,41.33
2024-01-30T16:19:36.599Z,40.07
2024-01-30T16:22:07.271Z,41.35
2024-01-30T16:24:38.270Z,41.90
2024-01-30T16:27:08.738Z,40.53
2024-01-30T16:29:39.802Z,41.03
2024-01-30T16:32:10.470Z,44.80
2024-01-30T16:34:40.927Z,42.40
2024-01-30T16:37:11.650Z,42.60
2024-01-30T16:39:42.227Z,42.37
2024-01-30T16:42:15.650Z,41.83
2024-01-30T16:44:47.611Z,42.88
2024-01-30T16:47:18.071Z,42.97
2024-01-30T16:49:49.189Z,43.28
2024-01-30T16:52:19.677Z,40.63
2024-01-30T16:54:50.070Z,41.97
2024-01-30T16:57:20.547Z,43.27
2024-01-30T16:59:50.899Z,42.97
2024-01-30T17:02:21.397Z,41.47
2024-01-30T17:04:51.768Z,38.70
2024-01-30T17:07:22.914Z,42.47
2024-01-30T17:09:53.534Z,40.42
2024-01-30T17:12:23.807Z,40.47
2024-01-30T17:14:54.389Z,38.53
2024-01-30T17:17:24.777Z,38.78
2024-01-30T17:19:55.161Z,40.65
2024-01-30T17:22:25.707Z,41.03
2024-01-30T17:24:56.873Z,39.80
2024-01-30T17:29:57.403Z,42.53
2024-01-30T17:32:30.850Z,37.45
2024-01-30T17:35:01.535Z,37.17
2024-01-30T17:37:32.089Z,36.20
2024-01-30T17:40:02.467Z,38.80
2024-01-30T17:42:33.357Z,37.00
2024-01-30T17:45:04.407Z,37.20
2024-01-30T17:47:34.897Z,33.28
2024-01-30T17:50:05.846Z,35.38
2024-01-30T17:52:36.239Z,35.42
2024-01-30T17:55:06.971Z,31.47
2024-01-30T17:57:37.293Z,34.67
2024-01-30T18:00:09.621Z,33.80
2024-01-30T18:02:40.272Z,34.17
2024-01-30T18:05:13.140Z,35.03
2024-01-30T18:07:44.209Z,32.25
2024-01-30T18:10:16.540Z,34.28
2024-01-30T18:12:46.902Z,32.15
2024-01-30T18:15:35.534Z,32.78
2024-01-30T18:18:06.072Z,33.28
2024-01-30T18:20:36.518Z,32.17
2024-01-30T18:23:06.916Z,32.65
2024-01-30T18:25:37.450Z,37.00
2024-01-30T18:28:09.128Z,34.33
2024-01-30T18:30:39.616Z,31.83
2024-01-30T18:33:10.316Z,32.35
2024-01-30T18:35:40.766Z,30.17
2024-01-30T18:38:11.138Z,31.90
2024-01-30T18:40:41.697Z,32.03
2024-01-30T18:43:12.120Z,30.57
2024-01-30T18:45:42.644Z,31.37
2024-01-30T18:48:13.108Z,31.42
2024-01-30T18:50:43.448Z,31.83
2024-01-30T18:53:13.738Z,29.25
2024-01-30T18:55:44.099Z,30.13
2024-01-30T18:58:14.732Z,30.27
2024-01-30T19:00:48.348Z,33.97
2024-01-30T19:03:21.229Z,30.35
2024-01-30T19:05:51.997Z,30.27
2024-01-30T19:08:22.711Z,30.52
2024-01-30T19:10:53.179Z,30.77
2024-01-30T19:13:23.931Z,30.17
2024-01-30T19:15:54.390Z,29.50
2024-01-30T19:18:24.813Z,32.57
2024-01-30T19:20:55.188Z,33.20
2024-01-30T19:23:25.635Z,31.20
2024-01-30T19:25:56.065Z,31.25
2024-01-30T19:28:26.656Z,30.73
2024-01-30T19:30:57.793Z,31.37
2024-01-30T19:35:58.489Z,30.80
2024-01-30T19:38:29.040Z,32.93
2024-01-30T19:41:00.593Z,31.07
2024-01-30T19:43:31.246Z,33.08
2024-01-30T19:46:03.086Z,31.75
2024-01-30T19:48:33.711Z,32.30
2024-01-30T19:51:04.455Z,32.10
2024-01-30T19:53:35.773Z,29.83
2024-01-30T19:56:07.925Z,31.27
2024-01-30T19:58:38.753Z,32.85
2024-01-30T20:01:09.501Z,32.28
2024-01-30T20:03:39.934Z,31.97
2024-01-30T20:06:12.418Z,35.63
2024-01-30T20:08:43.102Z,34.35
2024-01-30T20:11:18.178Z,33.90
2024-01-30T20:13:48.547Z,34.17
2024-01-30T20:16:19.056Z,33.80
2024-01-30T20:18:49.832Z,34.17
2024-01-30T20:21:20.395Z,35.90
2024-01-30T20:23:52.560Z,33.80
2024-01-30T20:26:23.025Z,35.47
2024-01-30T20:28:57.084Z,35.60
2024-01-30T20:31:27.889Z,34.72
2024-01-30T20:33:58.650Z,35.60
2024-01-30T20:36:29.025Z,36.00
2024-01-30T20:38:59.251Z,35.20
2024-01-30T20:41:30.457Z,35.20
2024-01-30T20:44:01.331Z,35.95
2024-01-30T20:46:31.858Z,38.92
2024-01-30T20:49:02.832Z,36.47
2024-01-30T20:51:33.377Z,35.97
2024-01-30T20:54:03.825Z,36.17
2024-01-30T20:56:34.156Z,37.95
2024-01-30T20:59:04.460Z,36.53
2024-01-30T21:01:35.021Z,36.33
2024-01-30T21:04:05.567Z,33.97
2024-01-30T21:06:36.590Z,38.07
2024-01-30T21:09:07.144Z,42.53
2024-01-30T21:11:37.958Z,37.58
2024-01-30T21:14:09.750Z,38.97
2024-01-30T21:16:41.210Z,37.47
2024-01-30T21:19:13.489Z,37.85
2024-01-30T21:21:43.828Z,38.85
2024-01-30T21:24:14.609Z,37.63
2024-01-30T21:26:45.056Z,38.38
2024-01-30T21:29:15.353Z,38.20
2024-01-30T21:31:49.750Z,38.05
2024-01-30T21:34:20.114Z,37.95
2024-01-30T21:36:50.699Z,37.43
2024-01-30T21:39:20.871Z,37.97
2024-01-30T21:41:51.183Z,41.60
2024-01-30T21:44:21.687Z,38.35
2024-01-30T21:46:52.172Z,39.33
2024-01-30T21:49:23.056Z,38.50
2024-01-30T21:51:56.316Z,40.17
2024-01-30T21:54:26.857Z,39.55
2024-01-30T21:56:57.200Z,41.47
2024-01-30T21:59:27.615Z,40.58
2024-01-30T22:01:58.146Z,40.63
2024-01-30T22:04:30.381Z,41.65
2024-01-30T22:07:01.081Z,42.25
2024-01-30T22:09:31.710Z,42.15
2024-01-30T22:12:01.838Z,42.55
2024-01-30T22:14:34.357Z,43.05
2024-01-30T22:17:06.969Z,41.03
2024-01-30T22:22:07.853Z,41.53
2024-01-30T22:24:38.309Z,41.22
2024-01-30T22:27:08.990Z,40.10
2024-01-30T22:29:39.284Z,43.80
2024-01-30T22:32:10.079Z,43.60
2024-01-30T22:34:41.368Z,42.80
2024-01-30T22:39:41.629Z,43.25
2024-01-30T22:42:12.175Z,41.40
2024-01-30T22:44:42.569Z,42.23
2024-01-30T22:47:12.917Z,42.03
2024-01-30T22:49:43.398Z,43.65
2024-01-30T22:52:13.773Z,45.60
2024-01-30T22:56:15.417Z,42.25
2024-01-30T22:58:46.048Z,41.08
2024-01-30T23:01:16.458Z,44.43
2024-01-30T23:03:46.815Z,43.00
2024-01-30T23:06:17.366Z,41.55
2024-01-30T23:08:47.822Z,40.10
2024-01-30T23:11:18.179Z,39.50
2024-01-30T23:13:48.559Z,37.08
2024-01-30T23:16:18.994Z,42.63
2024-01-30T23:18:49.454Z,42.78
2024-01-30T23:21:20.274Z,46.80
2024-01-30T23:23:50.633Z,42.92
2024-01-30T23:26:20.994Z,40.83
2024-01-30T23:28:51.489Z,41.87
2024-01-30T23:31:21.843Z,44.45
2024-01-30T23:33:52.478Z,43.07
2024-01-30T23:36:22.965Z,44.13
2024-01-30T23:38:53.462Z,43.60
2024-01-30T23:41:23.917Z,43.65
2024-01-30T23:43:54.430Z,41.53
2024-01-30T23:46:24.818Z,43.55
2024-01-30T23:48:55.212Z,43.83
2024-01-30T23:51:25.636Z,44.77
2024-01-30T23:53:56.025Z,44.45
2024-01-30T23:56:26.625Z,41.30
2024-01-30T23:58:56.903Z,41.50
